Time;durP1;ratioP1;P1;durP2;ratioP2;P2;SDS_P1;SDS_P2;PMS_P1;PMS_P2;Temp;Humidity;BMP_temperature;BMP_pressure;BME280_temperature;BME280_humidity;BME280_pressure;Samples;Min_cycle;Max_cycle;Signal;HPM_P1;HPM_P2
2021/11/16 00:04:35;;;;;;;25.33;19.40;;;;;;;8.95;73.91;100865.34;10287274;28;20057;-62
2021/11/16 00:09:37;;;;;;;26.00;18.42;;;;;;;8.87;73.79;100839.25;10284461;28;20173;-62
2021/11/16 00:14:38;;;;;;;26.65;19.17;;;;;;;8.97;73.57;100858.13;10288202;28;20117;-61
2021/11/16 00:19:40;;;;;;;29.17;20.08;;;;;;;8.88;73.95;100840.13;10275786;28;20054;-61
2021/11/16 00:24:56;;;;;;;29.10;21.70;;;;;;;8.90;73.97;100867.44;10329109;28;20211;-62
2021/11/16 00:29:58;;;;;;;32.38;21.60;;;;;;;8.92;73.94;100855.78;10329562;28;20136;-62
2021/11/16 00:35:00;;;;;;;28.67;19.58;;;;;;;8.85;74.36;100863.25;10331567;28;20584;-62
2021/11/16 00:40:10;;;;;;;33.47;21.75;;;;;;;8.89;74.28;100868.38;10328202;28;20129;-62
2021/11/16 00:45:13;;;;;;;28.23;20.55;;;;;;;8.95;74.34;100860.03;10329968;28;20744;-62
2021/11/16 00:50:16;;;;;;;35.10;21.58;;;;;;;8.81;74.61;100864.44;10318339;28;20141;-62
2021/11/16 00:55:17;;;;;;;29.27;20.73;;;;;;;8.75;74.48;100854.19;10320290;28;20054;-62
2021/11/16 01:00:19;;;;;;;31.50;21.58;;;;;;;8.83;74.43;100864.31;10324524;28;20054;-61
2021/11/16 01:05:20;;;;;;;26.52;19.08;;;;;;;8.79;74.38;100853.03;10323608;28;20065;-61
2021/11/16 01:10:22;;;;;;;30.52;20.40;;;;;;;8.79;74.79;100863.66;10325099;28;20052;-62
2021/11/16 01:15:24;;;;;;;31.85;20.77;;;;;;;8.20;77.48;100865.56;10321641;28;20133;-62
2021/11/16 01:20:25;;;;;;;30.60;20.83;;;;;;;8.51;76.27;100869.00;10336145;28;20049;-62
2021/11/16 01:25:27;;;;;;;31.80;22.02;;;;;;;8.60;75.77;100863.09;10333586;28;20095;-62
2021/11/16 01:30:31;;;;;;;30.38;18.15;;;;;;;8.64;75.37;100854.00;10319251;28;20054;-61
2021/11/16 01:35:35;;;;;;;29.52;19.85;;;;;;;8.55;75.67;100838.66;10291427;28;20165;-62
2021/11/16 01:40:38;;;;;;;31.92;22.33;;;;;;;8.71;75.03;100839.41;10286799;28;20335;-62
2021/11/16 01:45:41;;;;;;;27.08;20.40;;;;;;;8.66;75.06;100841.50;10290079;28;20164;-62
2021/11/16 01:50:44;;;;;;;28.05;19.80;;;;;;;8.75;74.95;100846.25;10268885;28;20157;-62
2021/11/16 01:55:46;;;;;;;30.52;20.77;;;;;;;8.73;74.80;100840.16;10293575;28;20110;-62
2021/11/16 02:00:47;;;;;;;29.73;20.50;;;;;;;8.68;75.02;100842.25;10291694;28;20137;-62
2021/11/16 02:05:52;;;;;;;29.20;20.95;;;;;;;8.68;75.45;100839.59;10288364;28;20104;-61
2021/11/16 02:10:54;;;;;;;;;;;;;;;8.72;75.28;100830.50;10302809;28;20298;-61
2021/11/16 02:15:56;;;;;;;32.83;21.60;;;;;;;8.59;75.75;100829.56;10285622;28;19980;-62
2021/11/16 02:20:57;;;;;;;29.88;21.00;;;;;;;8.58;75.81;100828.69;10287753;28;20062;-62
2021/11/16 02:25:59;;;;;;;33.40;21.85;;;;;;;8.67;75.65;100817.50;10277379;28;20551;-61
2021/11/16 02:31:03;;;;;;;31.42;20.42;;;;;;;8.64;75.33;100808.91;10284718;28;20605;-61
2021/11/16 02:36:05;;;;;;;29.63;20.75;;;;;;;8.67;75.21;100787.47;10275301;28;20501;-61
2021/11/16 02:41:07;;;;;;;28.20;20.13;;;;;;;8.76;75.08;100799.31;10273728;28;20124;-62
2021/11/16 02:46:09;;;;;;;27.85;21.17;;;;;;;8.60;75.38;100768.44;10276414;28;20740;-61
2021/11/16 02:51:11;;;;;;;28.77;20.77;;;;;;;8.77;75.13;100795.69;10287658;28;20038;-62
2021/11/16 02:56:12;;;;;;;27.73;20.45;;;;;;;8.69;75.31;100777.59;10272675;28;20122;-62
2021/11/16 03:01:18;;;;;;;24.80;19.17;;;;;;;8.78;75.30;100792.94;10284417;28;20157;-62
2021/11/16 03:06:20;;;;;;;29.73;19.55;;;;;;;8.74;74.98;100777.31;10276871;28;20065;-61
2021/11/16 03:11:21;;;;;;;30.08;18.90;;;;;;;8.69;75.23;100780.25;10284027;28;20161;-61
2021/11/16 03:16:23;;;;;;;27.95;18.58;;;;;;;8.66;75.61;100767.16;10277116;28;20138;-62
2021/11/16 03:21:26;;;;;;;28.45;18.70;;;;;;;8.79;75.06;100778.69;10285070;28;20042;-62
2021/11/16 03:26:29;;;;;;;31.20;20.45;;;;;;;8.52;76.35;100765.41;10277704;28;20571;-61
2021/11/16 03:31:40;;;;;;;26.83;19.63;;;;;;;8.71;75.84;100765.09;10278449;28;20051;-61
2021/11/16 03:36:42;;;;;;;28.88;19.15;;;;;;;8.66;75.48;100761.88;10278502;28;20133;-61
2021/11/16 03:41:45;;;;;;;29.55;20.60;;;;;;;8.75;75.26;100766.59;10281414;28;20054;-62
2021/11/16 03:46:47;;;;;;;30.90;20.20;;;;;;;8.74;75.20;100754.28;10282026;28;20050;-61
2021/11/16 03:51:49;;;;;;;30.00;19.63;;;;;;;8.77;74.82;100771.81;10268190;28;20658;-61
2021/11/16 03:56:52;;;;;;;31.55;20.45;;;;;;;8.76;75.00;100764.78;10285721;28;20046;-62
2021/11/16 04:01:54;;;;;;;30.45;21.80;;;;;;;8.69;75.11;100755.53;10283527;28;20511;-62
2021/11/16 04:06:55;;;;;;;31.55;21.45;;;;;;;8.71;75.21;100743.84;10290553;28;20046;-62
2021/11/16 04:11:57;;;;;;;31.58;21.52;;;;;;;8.67;75.35;100745.00;10285327;28;20100;-63
2021/11/16 04:16:58;;;;;;;30.17;20.55;;;;;;;8.67;75.27;100742.34;10291863;28;20089;-64
2021/11/16 04:22:00;;;;;;;30.00;20.58;;;;;;;8.71;74.95;100759.78;10286293;28;20571;-61
2021/11/16 04:27:02;;;;;;;31.65;21.83;;;;;;;8.69;75.23;100744.91;10285994;28;20112;-63
2021/11/16 04:32:04;;;;;;;30.13;21.13;;;;;;;8.66;75.35;100748.59;10287424;28;20050;-62
2021/11/16 04:37:06;;;;;;;29.75;20.58;;;;;;;8.67;75.22;100734.38;10287797;28;20145;-61
2021/11/16 04:42:07;;;;;;;31.17;20.55;;;;;;;8.65;75.25;100731.84;10282727;28;20520;-61
2021/11/16 04:47:10;;;;;;;32.75;21.65;;;;;;;8.66;75.35;100730.03;10285576;28;20132;-62
2021/11/16 04:52:43;;;;;;;32.40;20.83;;;;;;;8.64;75.58;100721.31;10289287;28;20050;-61
2021/11/16 05:08:26;;;;;;;29.30;19.52;;;;;;;8.72;75.31;100736.72;10158895;28;20304;-71
2021/11/16 05:13:27;;;;;;;29.40;22.05;;;;;;;8.62;75.32;100740.00;10161173;28;20052;-67
2021/11/16 05:18:28;;;;;;;28.10;20.30;;;;;;;8.68;75.51;100746.72;10165790;28;20064;-69
2021/11/16 05:23:35;;;;;;;33.08;21.55;;;;;;;8.64;75.63;100746.03;10163918;28;20062;-72
2021/11/16 05:28:37;;;;;;;28.90;20.65;;;;;;;8.66;75.45;100749.47;10167720;28;20144;-67
2021/11/16 05:33:38;;;;;;;29.73;20.52;;;;;;;8.70;75.48;100747.47;10166652;28;20088;-68
2021/11/16 05:38:40;;;;;;;30.92;21.02;;;;;;;8.68;75.46;100746.72;10164461;28;20062;-67
2021/11/16 05:43:43;;;;;;;29.40;21.23;;;;;;;8.70;75.62;100746.63;10163678;28;20250;-67
2021/11/16 05:48:44;;;;;;;30.27;19.20;;;;;;;8.68;75.26;100754.69;10168242;28;20056;-68
2021/11/16 05:53:51;;;;;;;30.70;20.02;;;;;;;8.67;75.27;100753.81;10148093;28;20535;-67
2021/11/16 05:58:54;;;;;;;26.83;19.58;;;;;;;8.69;75.72;100764.31;10138908;28;20048;-67
2021/11/16 06:03:55;;;;;;;31.95;20.60;;;;;;;8.66;75.38;100756.56;10140947;28;20554;-67
2021/11/16 06:09:03;;;;;;;29.25;21.70;;;;;;;8.67;75.41;100766.22;10144756;28;20401;-67
2021/11/16 06:14:04;;;;;;;28.98;19.33;;;;;;;8.76;75.44;100762.97;10151503;28;20048;-70
2021/11/16 06:19:07;;;;;;;26.60;19.85;;;;;;;8.79;75.04;100773.41;10150641;28;20543;-67
2021/11/16 06:24:09;;;;;;;26.05;18.80;;;;;;;8.72;74.87;100761.50;10143045;28;20126;-68
2021/11/16 06:29:11;;;;;;;26.60;20.00;;;;;;;8.73;75.07;100768.50;10146270;28;20060;-67
2021/11/16 06:34:13;;;;;;;27.40;20.00;;;;;;;8.69;74.82;100766.97;10134592;28;20046;-67
2021/11/16 06:39:17;;;;;;;26.50;19.00;;;;;;;8.67;75.16;100780.34;10136703;28;20052;-66
2021/11/16 06:44:21;;;;;;;26.52;19.50;;;;;;;8.75;75.16;100786.97;10155898;28;20459;-68
2021/11/16 06:49:23;;;;;;;28.02;19.63;;;;;;;8.77;74.85;100798.34;10164982;28;20083;-67
2021/11/16 06:54:26;;;;;;;25.73;18.52;;;;;;;8.72;75.17;100806.63;10151300;28;20139;-69
2021/11/16 06:59:28;;;;;;;25.15;18.80;;;;;;;8.74;75.10;100809.19;10147261;28;20076;-67
2021/11/16 07:04:37;;;;;;;24.55;17.58;;;;;;;8.89;75.31;100808.19;10157077;28;20055;-66
2021/11/16 07:09:40;;;;;;;24.50;17.23;;;;;;;9.12;75.30;100814.63;10174508;28;20048;-67
2021/11/16 07:14:42;;;;;;;22.90;16.80;;;;;;;9.25;74.20;100814.69;10158700;28;20190;-67
2021/11/16 07:19:55;;;;;;;23.48;17.15;;;;;;;9.35;73.43;100801.63;10175696;28;20471;-67
2021/11/16 07:25:08;;;;;;;23.48;16.40;;;;;;;9.42;71.97;100813.56;10143634;28;20127;-69
2021/11/16 07:30:13;;;;;;;26.48;18.00;;;;;;;9.18;72.60;100824.84;10186077;28;21025;-67
2021/11/16 07:35:17;;;;;;;26.23;17.20;;;;;;;9.06;73.49;100823.00;10185907;28;20071;-67
2021/11/16 07:40:20;;;;;;;25.35;18.42;;;;;;;8.96;73.77;100816.59;10178028;28;20067;-65
2021/11/16 07:45:29;;;;;;;27.02;17.42;;;;;;;8.93;73.88;100816.78;10181921;28;20802;-67
2021/11/16 07:50:30;;;;;;;25.63;17.92;;;;;;;8.88;73.96;100817.09;10177129;28;20074;-67
2021/11/16 07:55:32;;;;;;;24.95;17.48;;;;;;;8.83;74.24;100812.06;10177428;28;20088;-67
2021/11/16 08:00:39;;;;;;;24.10;17.42;;;;;;;8.91;74.45;100814.22;10180423;28;20052;-68
2021/11/16 08:11:27;;;;;;;21.90;16.90;;;;;;;8.90;73.86;100811.69;10181129;28;20047;-66
2021/11/16 08:16:29;;;;;;;27.83;17.80;;;;;;;8.87;73.95;100809.22;10180901;28;20162;-66
2021/11/16 08:21:32;;;;;;;25.80;17.75;;;;;;;8.90;73.98;100806.38;10176097;28;20215;-66
2021/11/16 08:26:40;;;;;;;23.67;16.60;;;;;;;8.92;74.03;100804.47;10179013;28;20644;-66
2021/11/16 08:31:50;;;;;;;22.75;16.77;;;;;;;8.92;74.22;100796.53;10145314;28;20048;-67
2021/11/16 08:36:54;;;;;;;26.67;17.27;;;;;;;8.97;73.89;100807.69;10184313;28;20043;-66
2021/11/16 08:41:56;;;;;;;24.40;17.30;;;;;;;8.95;73.84;100805.13;10174438;28;20131;-66
2021/11/16 08:47:11;;;;;;;23.00;15.35;;;;;;;8.92;73.78;100799.19;10181715;28;20443;-67
2021/11/16 08:52:18;;;;;;;25.85;17.75;;;;;;;9.04;73.85;100811.66;10181339;28;20106;-66
2021/11/16 08:57:21;;;;;;;22.25;16.35;;;;;;;9.09;73.72;100806.03;10170532;28;20056;-67
2021/11/16 09:02:24;;;;;;;20.67;15.90;;;;;;;9.05;73.50;100805.34;10178542;28;20059;-67
2021/11/16 09:07:29;;;;;;;23.75;17.52;;;;;;;9.00;73.89;100796.84;10177987;28;20747;-67
2021/11/16 09:12:37;;;;;;;26.20;16.65;;;;;;;9.02;73.69;100800.25;10185339;28;20051;-66
2021/11/16 09:17:39;;;;;;;23.50;17.65;;;;;;;8.97;73.77;100791.75;10147618;29;20117;-66
2021/11/16 09:22:41;;;;;;;24.63;16.95;;;;;;;9.01;73.41;100794.09;10136540;29;20063;-67
2021/11/16 09:27:45;;;;;;;28.52;18.52;;;;;;;8.98;73.70;100801.44;10139802;28;20048;-68
2021/11/16 09:32:59;;;;;;;25.02;18.33;;;;;;;8.97;73.55;100813.00;10186524;28;20047;-68
2021/11/16 09:38:00;;;;;;;21.80;16.40;;;;;;;9.00;74.01;100803.00;10167449;28;20061;-67
2021/11/16 09:43:03;;;;;;;24.92;17.48;;;;;;;9.02;73.77;100802.91;10183418;28;20053;-67
2021/11/16 09:48:05;;;;;;;22.15;17.48;;;;;;;9.00;73.51;100797.69;10182543;28;20122;-66
2021/11/16 09:53:14;;;;;;;21.67;15.38;;;;;;;8.99;73.78;100789.84;10197126;28;20160;-67
2021/11/16 09:58:24;;;;;;;23.38;16.98;;;;;;;9.05;73.76;100799.22;10180501;28;20051;-67
2021/11/16 10:03:27;;;;;;;23.30;17.38;;;;;;;9.01;73.33;100811.84;10191087;28;20158;-67
2021/11/16 10:08:28;;;;;;;21.75;16.00;;;;;;;9.08;74.09;100807.81;10200474;28;20178;-66
2021/11/16 10:13:30;;;;;;;23.75;17.95;;;;;;;9.13;73.47;100810.19;10185594;28;20431;-66
2021/11/16 10:18:37;;;;;;;24.75;18.17;;;;;;;9.11;73.12;100810.28;10194628;28;20071;-67
2021/11/16 10:23:46;;;;;;;22.83;16.35;;;;;;;9.12;72.98;100805.81;10183222;28;20050;-67
2021/11/16 10:28:48;;;;;;;25.25;17.23;;;;;;;9.11;73.05;100799.69;10185247;28;20083;-67
2021/11/16 10:33:52;;;;;;;23.75;16.38;;;;;;;9.08;73.11;100794.53;10189105;28;20056;-66
2021/11/16 10:38:59;;;;;;;21.73;15.82;;;;;;;9.10;73.17;100797.97;10188079;28;20058;-66
2021/11/16 10:44:02;;;;;;;25.40;16.20;;;;;;;9.08;73.22;100789.22;10190226;28;20207;-66
2021/11/16 10:49:10;;;;;;;25.23;17.83;;;;;;;9.12;73.36;100796.03;10184800;28;20050;-66
2021/11/16 10:54:13;;;;;;;21.67;16.15;;;;;;;9.11;72.85;100777.56;10198818;28;20109;-65
2021/11/16 10:59:17;;;;;;;24.65;17.63;;;;;;;9.12;73.11;100773.97;10178687;28;20062;-67
2021/11/16 11:04:21;;;;;;;26.33;16.67;;;;;;;9.10;73.37;100773.22;10186951;28;20466;-67
2021/11/16 11:09:26;;;;;;;24.00;17.60;;;;;;;9.09;73.37;100759.06;10183264;28;20495;-66
2021/11/16 11:14:36;;;;;;;26.33;17.77;;;;;;;9.13;73.50;100749.94;10183842;28;20399;-67
2021/11/16 11:19:41;;;;;;;23.52;16.30;;;;;;;9.14;74.10;100743.69;10182154;28;20114;-66
2021/11/16 11:24:53;;;;;;;22.60;16.75;;;;;;;9.13;73.82;100747.28;10171551;28;20051;-67
2021/11/16 11:29:59;;;;;;;22.58;17.27;;;;;;;9.15;74.21;100753.34;10185622;28;20583;-66
2021/11/16 11:35:03;;;;;;;24.35;17.30;;;;;;;9.15;74.38;100745.38;10173533;28;20126;-66
2021/11/16 11:40:09;;;;;;;23.13;17.90;;;;;;;9.14;74.12;100741.03;10171736;28;20061;-66
2021/11/16 11:50:36;;;;;;;36.00;26.38;;;;;;;9.26;74.58;100733.19;10182944;28;20054;-66
2021/11/16 11:55:41;;;;;;;24.75;20.13;;;;;;;9.27;73.83;100734.91;10142740;29;22010;-64
2021/11/16 12:00:45;;;;;;;22.08;17.25;;;;;;;9.23;73.46;100730.75;10178891;28;20058;-67
2021/11/16 12:05:47;;;;;;;22.67;16.85;;;;;;;9.24;74.27;100724.47;10173356;28;20047;-65
2021/11/16 12:10:49;;;;;;;20.50;15.63;;;;;;;9.18;74.33;100718.59;10147343;28;20060;-65
2021/11/16 12:16:02;;;;;;;23.33;15.80;;;;;;;9.23;74.49;100706.81;10141061;29;20052;-67
2021/11/16 12:21:04;;;;;;;22.85;15.95;;;;;;;9.23;74.76;100707.66;10173055;28;20376;-70
2021/11/16 12:26:08;;;;;;;25.92;20.38;;;;;;;9.31;74.90;100709.84;10175078;28;20070;-64
2021/11/16 12:31:29;;;;;;;24.70;17.95;;;;;;;9.24;74.71;100708.53;10179447;28;20126;-67
2021/11/16 12:36:33;;;;;;;27.20;18.55;;;;;;;9.19;74.88;100708.84;10180161;28;20054;-67
2021/11/16 12:41:40;;;;;;;22.30;15.65;;;;;;;9.20;74.60;100703.44;10185168;28;20067;-65
2021/11/16 12:46:43;;;;;;;21.67;16.35;;;;;;;9.26;74.46;100685.38;10181731;28;20043;-67
2021/11/16 12:51:58;;;;;;;27.85;22.65;;;;;;;9.20;74.41;100681.31;10177846;28;20110;-64
2021/11/16 12:57:00;;;;;;;24.85;18.98;;;;;;;9.18;74.80;100673.44;10190317;28;20453;-64
2021/11/16 13:02:04;;;;;;;25.42;18.23;;;;;;;9.14;74.96;100671.97;10174996;28;20052;-64
2021/11/16 13:07:22;;;;;;;22.60;16.98;;;;;;;9.19;75.13;100674.31;10194025;28;20368;-67
2021/11/16 13:12:32;;;;;;;22.40;17.45;;;;;;;9.16;75.37;100674.53;10182087;28;20146;-65
2021/11/16 13:17:52;;;;;;;25.50;17.27;;;;;;;9.18;75.38;100669.97;10182575;28;20065;-65
2021/11/16 13:23:18;;;;;;;24.15;16.77;;;;;;;9.13;75.41;100654.34;10201408;28;20055;-68
2021/11/16 13:33:52;;;;;;;23.55;16.70;;;;;;;9.12;75.00;100663.25;10182905;28;20054;-65
2021/11/16 13:39:05;;;;;;;20.83;15.57;;;;;;;9.10;75.51;100656.38;10190963;28;20062;-67
2021/11/16 13:44:10;;;;;;;23.20;17.05;;;;;;;9.03;75.72;100648.78;10189265;28;20059;-65
2021/11/16 13:49:17;;;;;;;26.73;18.58;;;;;;;9.02;75.37;100647.09;10180878;28;20043;-65
2021/11/16 13:54:19;;;;;;;23.17;17.10;;;;;;;9.03;76.05;100648.78;10184118;28;20449;-67
2021/11/16 13:59:22;;;;;;;21.38;15.60;;;;;;;8.98;76.01;100642.94;10186067;28;20055;-67
2021/11/16 14:04:24;;;;;;;24.20;17.00;;;;;;;9.00;75.92;100641.03;10172742;28;20107;-65
2021/11/16 14:09:25;;;;;;;20.05;15.90;;;;;;;9.02;76.10;100630.31;10194327;28;20052;-65
2021/11/16 14:14:28;;;;;;;22.25;15.70;;;;;;;9.09;75.89;100631.59;10188496;28;20044;-66
2021/11/16 14:19:29;;;;;;;20.75;14.75;;;;;;;9.05;75.24;100634.56;10173345;28;20068;-66
2021/11/16 14:24:34;;;;;;;22.70;15.70;;;;;;;9.07;75.13;100630.84;10174964;28;20093;-65
2021/11/16 14:29:35;;;;;;;19.52;14.75;;;;;;;9.10;74.98;100632.47;10181573;28;20123;-65
2021/11/16 14:34:37;;;;;;;24.08;17.48;;;;;;;9.06;74.80;100637.13;10166953;28;20055;-69
2021/11/16 14:39:38;;;;;;;21.13;15.65;;;;;;;8.97;75.09;100627.13;10169904;28;20075;-68
2021/11/16 14:44:42;;;;;;;21.75;15.93;;;;;;;9.03;75.02;100648.78;10170818;28;20056;-68
2021/11/16 14:54:50;;;;;;;22.60;15.35;;;;;;;9.14;74.95;100633.94;10183936;28;20131;-67
2021/11/16 14:59:55;;;;;;;21.15;15.45;;;;;;;9.01;74.64;100621.50;10176380;28;20063;-67
2021/11/16 15:04:57;;;;;;;21.55;16.88;;;;;;;8.94;75.11;100638.78;10175909;28;20063;-66
2021/11/16 15:10:03;;;;;;;21.60;16.23;;;;;;;9.05;75.30;100627.44;10193047;28;20061;-66
2021/11/16 15:15:08;;;;;;;22.05;16.58;;;;;;;9.10;75.09;100628.00;10147644;28;20620;-66
2021/11/16 15:21:14;;;;;;;22.63;15.55;;;;;;;9.01;75.24;100621.50;10172206;28;20062;-65
2021/11/16 15:26:19;;;;;;;21.45;17.60;;;;;;;9.01;75.78;100621.50;10175981;28;20545;-66
2021/11/16 15:31:21;;;;;;;21.70;17.35;;;;;;;9.04;75.55;100609.81;10179808;28;20238;-66
2021/11/16 15:36:27;;;;;;;23.92;16.92;;;;;;;8.98;75.52;100627.00;10175153;28;20085;-65
2021/11/16 15:41:58;;;;;;;21.00;15.43;;;;;;;8.95;75.77;100607.81;10182138;28;20066;-66
2021/11/16 15:58:14;;;;;;;19.80;16.23;;;;;;;9.09;75.33;100618.31;10175615;28;20053;-65
2021/11/16 16:03:15;;;;;;;21.80;16.17;;;;;;;9.09;75.52;100625.44;10169508;28;20131;-64
2021/11/16 16:08:17;;;;;;;22.67;15.77;;;;;;;9.03;75.58;100621.41;10181855;28;21608;-65
2021/11/16 16:13:29;;;;;;;21.08;15.88;;;;;;;8.98;75.54;100619.06;10185888;28;20061;-68
2021/11/16 16:18:31;;;;;;;21.45;15.70;;;;;;;8.98;75.69;100620.88;10189951;28;20142;-65
2021/11/16 16:23:32;;;;;;;20.98;15.93;;;;;;;8.99;75.44;100614.56;10181915;28;20066;-65
2021/11/16 16:28:42;;;;;;;19.75;16.02;;;;;;;8.98;75.38;100618.22;10181953;28;20517;-65
2021/11/16 16:33:44;;;;;;;22.23;16.63;;;;;;;8.95;75.69;100610.47;10173073;28;20069;-65
2021/11/16 16:38:46;;;;;;;23.25;15.85;;;;;;;8.97;75.53;100611.19;10175029;28;20060;-66
2021/11/16 16:43:50;;;;;;;22.02;16.50;;;;;;;9.03;75.87;100598.34;10180897;28;20248;-66
2021/11/16 16:48:53;;;;;;;22.17;16.70;;;;;;;9.02;75.65;100603.75;10190530;28;20276;-65
2021/11/16 16:53:57;;;;;;;24.83;16.80;;;;;;;9.02;75.86;100614.38;10186617;28;20438;-64
2021/11/16 16:59:01;;;;;;;23.20;17.25;;;;;;;8.95;75.93;100613.13;10187724;28;20226;-65
2021/11/16 17:04:04;;;;;;;21.40;16.65;;;;;;;8.92;76.04;100613.31;10194093;28;20071;-65
2021/11/16 17:09:06;;;;;;;22.73;16.05;;;;;;;8.96;76.35;100614.78;10183995;28;20059;-66
2021/11/16 17:14:07;;;;;;;22.42;16.73;;;;;;;8.95;76.34;100615.78;10312185;23;20064;-70
2021/11/16 17:19:12;;;;;;;22.55;17.35;;;;;;;8.94;76.43;100619.38;10335318;28;20693;-74
2021/11/16 17:24:13;;;;;;;22.95;17.85;;;;;;;8.97;76.60;100622.66;10339897;28;20049;-72
2021/11/16 17:29:14;;;;;;;21.73;16.52;;;;;;;9.01;76.48;100613.53;10318456;28;20545;-73
2021/11/16 17:34:16;;;;;;;22.92;17.30;;;;;;;9.03;76.38;100624.88;10316435;28;20058;-70
2021/11/16 17:39:18;;;;;;;21.90;15.23;;;;;;;8.97;76.62;100613.84;10323371;28;20129;-72
2021/11/16 17:44:22;;;;;;;23.33;16.30;;;;;;;8.93;76.34;100615.88;10318437;28;20049;-70
2021/11/16 17:49:24;;;;;;;19.65;15.77;;;;;;;9.01;76.54;100620.66;10326008;28;20125;-70
2021/11/16 17:54:26;;;;;;;21.58;15.77;;;;;;;8.99;76.46;100619.88;10329939;28;20047;-73
2021/11/16 17:59:31;;;;;;;24.35;18.23;;;;;;;9.02;76.32;100617.03;10324825;28;20085;-70
2021/11/16 18:04:36;;;;;;;21.23;16.08;;;;;;;8.96;76.37;100617.44;10345053;28;20050;-71
2021/11/16 18:09:38;;;;;;;25.77;16.58;;;;;;;9.00;76.30;100611.81;10319041;28;20054;-72
2021/11/16 18:14:39;;;;;;;24.05;17.35;;;;;;;9.01;76.00;100618.00;10355069;28;20136;-69
2021/11/16 18:19:44;;;;;;;22.08;16.00;;;;;;;8.98;76.13;100618.22;10361693;28;20060;-73
2021/11/16 18:24:46;;;;;;;19.92;15.95;;;;;;;9.01;76.15;100608.22;10367264;28;20054;-72
2021/11/16 18:29:49;;;;;;;19.60;15.82;;;;;;;8.98;76.21;100607.59;10337436;28;20050;-74
2021/11/16 18:34:51;;;;;;;23.27;17.38;;;;;;;8.99;75.93;100601.31;10316230;28;20431;-72
2021/11/16 18:40:00;;;;;;;22.02;17.23;;;;;;;9.06;75.43;100613.22;10344783;28;20628;-72
2021/11/16 18:50:05;;;;;;;21.80;16.98;;;;;;;9.01;75.36;100607.38;10302485;28;20050;-73
2021/11/16 18:55:09;;;;;;;23.55;18.05;;;;;;;8.97;75.38;100597.91;10341347;28;20785;-76
2021/11/16 19:00:11;;;;;;;21.80;16.17;;;;;;;8.91;75.44;100599.19;10369106;28;20466;-74
2021/11/16 19:05:13;;;;;;;25.15;18.17;;;;;;;8.85;76.37;100603.09;10335827;28;20065;-74
2021/11/16 19:10:14;;;;;;;20.55;15.68;;;;;;;8.84;76.75;100606.72;10347517;28;20081;-74
2021/11/16 19:15:16;;;;;;;22.33;17.00;;;;;;;8.84;76.71;100603.19;10344812;28;20619;-76
2021/11/16 19:20:18;;;;;;;23.05;17.13;;;;;;;8.97;76.77;100608.53;10350612;28;20093;-71
2021/11/16 19:25:23;;;;;;;23.20;17.50;;;;;;;9.06;76.19;100610.56;10301370;28;20132;-74
2021/11/16 19:30:27;;;;;;;;;;;;;;;8.97;76.92;100616.50;10329064;28;20261;-73
2021/11/16 19:35:33;;;;;;;23.25;17.58;;;;;;;8.96;76.98;100617.44;10298562;28;19930;-72
2021/11/16 19:40:36;;;;;;;22.42;16.35;;;;;;;9.01;77.01;100618.84;10318303;28;20128;-72
2021/11/16 19:45:43;;;;;;;25.17;17.40;;;;;;;8.96;76.82;100609.47;10310107;28;20986;-70
2021/11/16 19:50:45;;;;;;;23.40;17.73;;;;;;;9.02;76.89;100614.38;10326344;28;20049;-72
2021/11/16 19:55:47;;;;;;;22.63;17.98;;;;;;;8.94;76.42;100606.94;10323054;28;20084;-72
2021/11/16 20:00:51;;;;;;;21.00;17.00;;;;;;;9.01;76.46;100612.69;10319607;28;20077;-72
2021/11/16 20:06:00;;;;;;;22.77;17.00;;;;;;;9.00;76.06;100613.63;10311831;28;20075;-74
2021/11/16 20:11:03;;;;;;;24.27;19.00;;;;;;;8.96;76.41;100604.16;10312496;28;20147;-73
2021/11/16 20:16:06;;;;;;;23.08;17.73;;;;;;;9.00;76.56;100603.84;10313192;28;20508;-72
2021/11/16 20:21:12;;;;;;;21.13;17.52;;;;;;;9.05;76.99;100603.53;10301265;28;20050;-73
2021/11/16 20:26:13;;;;;;;26.13;19.58;;;;;;;8.93;76.79;100604.38;10312440;28;20061;-72
2021/11/16 20:31:22;;;;;;;23.17;18.15;;;;;;;8.98;77.38;100612.91;10330801;28;20061;-72
2021/11/16 20:36:24;;;;;;;23.00;17.48;;;;;;;9.10;77.09;100614.72;10320546;28;20058;-74
2021/11/16 20:41:46;;;;;;;24.58;17.27;;;;;;;9.09;77.31;100618.31;10309955;28;20431;-72
2021/11/16 20:46:56;;;;;;;23.42;17.05;;;;;;;9.06;77.43;100615.88;10302017;28;20131;-72
2021/11/16 21:02:38;;;;;;;21.00;16.25;;;;;;;8.92;78.13;100623.94;10353212;28;20050;-73
2021/11/16 21:07:39;;;;;;;20.27;13.45;;;;;;;8.85;78.93;100624.31;10337257;28;20685;-70
2021/11/16 21:12:41;;;;;;;16.00;12.55;;;;;;;8.87;78.91;100626.03;10347520;28;20508;-71
2021/11/16 21:17:43;;;;;;;16.20;11.95;;;;;;;8.89;78.75;100624.13;10352716;28;20049;-72
2021/11/16 21:22:45;;;;;;;11.63;8.73;;;;;;;8.64;78.77;100601.91;10335524;28;20069;-73
2021/11/16 21:27:46;;;;;;;12.32;8.27;;;;;;;8.67;79.07;100609.66;10336837;28;20144;-72
2021/11/16 21:32:48;;;;;;;10.70;7.50;;;;;;;8.75;78.50;100611.78;10339541;28;21302;-73
2021/11/16 21:37:50;;;;;;;8.68;7.40;;;;;;;8.67;78.32;100620.25;10338125;28;20057;-72
2021/11/16 21:42:51;;;;;;;9.48;7.68;;;;;;;8.77;78.75;100620.50;10345042;28;20133;-71
2021/11/16 21:47:53;;;;;;;7.85;6.65;;;;;;;8.78;78.17;100623.06;10342042;28;20073;-72
2021/11/16 21:52:55;;;;;;;8.18;7.20;;;;;;;8.80;77.65;100620.31;10341912;28;20140;-71
2021/11/16 21:57:56;;;;;;;6.70;6.00;;;;;;;8.80;77.19;100620.31;10330107;28;20132;-68
2021/11/16 22:02:57;;;;;;;7.72;5.85;;;;;;;8.71;76.49;100612.94;10338058;28;20089;-73
2021/11/16 22:08:09;;;;;;;8.15;5.70;;;;;;;8.58;77.29;100620.88;10318950;28;20531;-71
2021/11/16 22:13:14;;;;;;;6.95;6.20;;;;;;;8.46;77.08;100607.47;10314258;28;20469;-74
2021/11/16 22:18:17;;;;;;;6.57;5.97;;;;;;;8.63;76.94;100602.84;10352136;28;20137;-73
2021/11/16 22:23:19;;;;;;;6.22;5.40;;;;;;;8.57;76.46;100604.13;10332701;28;20080;-75
2021/11/16 22:28:20;;;;;;;5.70;5.10;;;;;;;8.66;75.53;100614.13;10345735;28;20068;-73
2021/11/16 22:33:24;;;;;;;6.57;5.55;;;;;;;8.70;75.87;100609.44;10330295;28;20050;-73
2021/11/16 22:38:25;;;;;;;6.47;5.68;;;;;;;8.71;75.38;100600.53;10323143;28;20050;-73
2021/11/16 22:43:27;;;;;;;5.30;4.80;;;;;;;8.76;74.24;100592.25;10320622;28;20156;-73
2021/11/16 22:48:29;;;;;;;6.07;5.47;;;;;;;8.84;74.92;100598.75;10332022;28;20129;-73
2021/11/16 22:53:31;;;;;;;5.70;5.03;;;;;;;8.82;74.42;100600.66;10331693;28;20066;-71
2021/11/16 22:58:33;;;;;;;6.07;5.47;;;;;;;8.82;73.63;100598.00;10329991;28;20081;-74
